createdAt,value
2018-09-09T00:01:17.016Z,10.50
2018-09-09T00:03:45.655Z,10.50
2018-09-09T00:06:14.311Z,10.50
2018-09-09T00:08:42.925Z,10.40
2018-09-09T00:11:11.665Z,10.40
2018-09-09T00:13:40.310Z,10.40
2018-09-09T00:16:08.975Z,10.40
2018-09-09T00:18:37.737Z,10.40
2018-09-09T00:21:06.389Z,10.40
2018-09-09T00:23:35.034Z,10.40
2018-09-09T00:26:03.705Z,10.40
2018-09-09T00:28:32.346Z,10.40
2018-09-09T00:31:01.102Z,10.40
2018-09-09T00:33:29.743Z,10.40
2018-09-09T00:35:58.534Z,10.40
2018-09-09T00:38:27.462Z,10.40
2018-09-09T00:40:56.080Z,10.40
2018-09-09T00:43:24.729Z,10.40
2018-09-09T00:45:53.436Z,10.40
2018-09-09T00:48:22.052Z,10.40
2018-09-09T00:50:55.923Z,10.50
2018-09-09T00:53:29.928Z,10.50
2018-09-09T00:55:58.571Z,10.50
2018-09-09T00:58:27.197Z,10.50
2018-09-09T01:01:01.166Z,10.50
2018-09-09T01:03:29.777Z,10.50
2018-09-09T01:05:58.565Z,10.60
2018-09-09T01:08:27.240Z,10.50
2018-09-09T01:10:55.887Z,10.60
2018-09-09T01:13:24.513Z,10.60
2018-09-09T01:16:04.538Z,10.60
2018-09-09T01:18:33.566Z,10.60
2018-09-09T01:21:02.240Z,10.60
2018-09-09T01:23:30.881Z,10.50
2018-09-09T01:25:59.587Z,10.50
2018-09-09T01:28:28.224Z,10.50
2018-09-09T01:30:57.049Z,10.50
2018-09-09T01:33:25.672Z,10.50
2018-09-09T01:35:54.294Z,10.50
2018-09-09T01:38:22.926Z,10.60
2018-09-09T01:40:51.587Z,10.60
2018-09-09T01:43:20.209Z,10.60
2018-09-09T01:45:48.821Z,10.60
2018-09-09T01:48:17.446Z,10.60
2018-09-09T01:50:46.105Z,10.60
2018-09-09T01:53:14.714Z,10.60
2018-09-09T01:55:43.587Z,10.60
2018-09-09T01:58:12.247Z,10.60
2018-09-09T02:00:40.955Z,10.60
2018-09-09T02:03:09.629Z,10.60
2018-09-09T02:05:38.246Z,10.60
2018-09-09T02:08:06.979Z,10.60
2018-09-09T02:10:35.588Z,10.50
2018-09-09T02:13:04.256Z,10.50
2018-09-09T02:15:32.928Z,10.50
2018-09-09T02:18:01.585Z,10.50
2018-09-09T02:20:30.429Z,10.50
2018-09-09T02:22:59.025Z,10.40
2018-09-09T02:25:27.664Z,10.40
2018-09-09T02:27:56.282Z,10.40
2018-09-09T02:30:24.953Z,10.40
2018-09-09T02:32:53.569Z,10.40
2018-09-09T02:35:28.710Z,10.40
2018-09-09T02:37:58.266Z,10.40
2018-09-09T02:40:26.922Z,10.40
2018-09-09T02:42:59.064Z,10.40
2018-09-09T02:45:27.677Z,10.40
2018-09-09T02:47:56.276Z,10.40
2018-09-09T02:50:24.885Z,10.40
2018-09-09T02:52:53.485Z,10.40
2018-09-09T02:55:22.226Z,10.40
2018-09-09T02:57:50.829Z,10.40
2018-09-09T03:00:19.450Z,10.40
2018-09-09T03:02:48.091Z,10.50
2018-09-09T03:05:16.682Z,10.40
2018-09-09T03:07:45.357Z,10.40
2018-09-09T03:10:13.971Z,10.40
2018-09-09T03:12:42.594Z,10.30
2018-09-09T03:15:11.210Z,10.30
2018-09-09T03:17:39.830Z,10.20
2018-09-09T03:20:08.585Z,10.20
2018-09-09T03:22:37.209Z,10.10
2018-09-09T03:25:05.848Z,10.00
2018-09-09T03:27:34.492Z,10.00
2018-09-09T03:30:03.090Z,10.00
2018-09-09T03:32:31.969Z,9.90
2018-09-09T03:35:00.578Z,9.90
2018-09-09T03:37:29.173Z,9.90
2018-09-09T03:39:57.818Z,9.90
2018-09-09T03:42:26.410Z,9.80
2018-09-09T03:44:55.174Z,9.80
2018-09-09T03:47:23.787Z,9.70
2018-09-09T03:49:52.413Z,9.70
2018-09-09T03:52:21.064Z,9.70
2018-09-09T03:54:49.710Z,9.60
2018-09-09T03:57:18.434Z,9.60
2018-09-09T03:59:47.046Z,9.60
2018-09-09T04:02:15.641Z,9.60
2018-09-09T04:04:44.289Z,9.60
2018-09-09T04:07:12.948Z,9.50
2018-09-09T04:09:41.587Z,9.50
2018-09-09T04:12:10.190Z,9.40
2018-09-09T04:14:38.805Z,9.40
2018-09-09T04:17:07.437Z,9.40
2018-09-09T04:19:36.120Z,9.40
2018-09-09T04:22:04.892Z,9.40
2018-09-09T04:24:33.543Z,9.40
2018-09-09T04:27:02.332Z,9.40
2018-09-09T04:29:30.947Z,9.30
2018-09-09T04:31:59.553Z,9.30
2018-09-09T04:34:28.434Z,9.30
2018-09-09T04:36:57.045Z,9.40
2018-09-09T04:39:25.663Z,9.40
2018-09-09T04:41:54.293Z,9.40
2018-09-09T04:44:22.897Z,9.40
2018-09-09T04:46:51.547Z,9.50
2018-09-09T04:49:20.159Z,9.60
2018-09-09T04:51:48.748Z,9.60
2018-09-09T04:54:17.366Z,9.70
2018-09-09T04:56:45.981Z,9.80
2018-09-09T04:59:14.737Z,9.80
2018-09-09T05:01:43.354Z,9.80
2018-09-09T05:04:12.037Z,9.90
2018-09-09T05:06:40.707Z,10.00
2018-09-09T05:09:09.714Z,10.10
2018-09-09T05:11:38.450Z,10.10
2018-09-09T05:14:07.105Z,10.20
2018-09-09T05:16:35.758Z,10.20
2018-09-09T05:19:04.482Z,10.30
2018-09-09T05:21:33.070Z,10.30
2018-09-09T05:24:02.066Z,10.40
2018-09-09T05:26:30.710Z,10.50
2018-09-09T05:28:59.361Z,10.50
2018-09-09T05:31:27.988Z,10.60
2018-09-09T05:33:56.585Z,10.50
2018-09-09T05:36:25.393Z,10.60
2018-09-09T05:38:54.007Z,10.60
2018-09-09T05:41:22.605Z,10.60
2018-09-09T05:43:51.229Z,10.70
2018-09-09T05:46:19.837Z,10.70
2018-09-09T05:48:48.520Z,10.70
2018-09-09T05:51:17.125Z,10.80
2018-09-09T05:53:45.783Z,10.90
2018-09-09T05:56:14.423Z,10.90
2018-09-09T05:58:43.057Z,10.90
2018-09-09T06:01:11.829Z,11.10
2018-09-09T06:03:40.480Z,11.10
2018-09-09T06:06:09.077Z,11.20
2018-09-09T06:08:37.746Z,11.20
2018-09-09T06:11:06.709Z,11.30
2018-09-09T06:13:35.461Z,11.30
2018-09-09T06:16:04.090Z,11.40
2018-09-09T06:18:32.705Z,11.50
2018-09-09T06:21:01.367Z,11.60
2018-09-09T06:23:29.967Z,11.70
2018-09-09T06:25:58.709Z,11.80
2018-09-09T06:28:27.333Z,11.90
2018-09-09T06:30:55.938Z,11.90
2018-09-09T06:33:24.557Z,12.00
2018-09-09T06:35:53.154Z,12.10
2018-09-09T06:38:21.781Z,12.20
2018-09-09T06:40:50.406Z,12.30
2018-09-09T06:43:19.005Z,12.40
2018-09-09T06:45:47.628Z,12.50
2018-09-09T06:48:16.229Z,12.70
2018-09-09T06:50:44.848Z,12.80
2018-09-09T06:53:13.508Z,12.90
2018-09-09T06:55:42.178Z,13.10
2018-09-09T06:58:10.802Z,13.20
2018-09-09T07:00:39.405Z,13.20
2018-09-09T07:03:08.077Z,13.20
2018-09-09T07:05:36.721Z,13.20
2018-09-09T07:08:05.350Z,13.30
2018-09-09T07:10:33.973Z,13.40
2018-09-09T07:13:02.585Z,13.60
2018-09-09T07:15:31.190Z,13.60
2018-09-09T07:17:59.815Z,13.80
2018-09-09T07:20:28.438Z,13.90
2018-09-09T07:22:57.067Z,14.00
2018-09-09T07:25:25.718Z,14.20
2018-09-09T07:27:54.337Z,14.40
2018-09-09T07:30:23.005Z,14.50
2018-09-09T07:32:51.681Z,14.70
2018-09-09T07:35:20.354Z,14.90
2018-09-09T07:37:49.048Z,15.10
2018-09-09T07:40:17.719Z,15.20
2018-09-09T07:42:46.837Z,15.40
2018-09-09T07:45:15.436Z,15.60
2018-09-09T07:47:44.091Z,15.80
2018-09-09T07:50:12.697Z,16.00
2018-09-09T07:52:41.359Z,16.20
2018-09-09T07:55:10.101Z,16.50
2018-09-09T07:57:38.711Z,16.70
2018-09-09T08:00:07.678Z,16.80
2018-09-09T08:02:36.561Z,17.00
2018-09-09T08:05:05.214Z,17.10
2018-09-09T08:07:33.829Z,17.30
2018-09-09T08:10:02.484Z,17.50
2018-09-09T08:12:31.078Z,17.60
2018-09-09T08:14:59.757Z,17.80
2018-09-09T08:17:28.381Z,17.90
2018-09-09T08:19:57.052Z,18.00
2018-09-09T08:22:25.684Z,18.20
2018-09-09T08:24:54.460Z,18.30
2018-09-09T08:27:23.081Z,18.50
2018-09-09T08:29:51.741Z,18.40
2018-09-09T08:32:20.381Z,18.30
2018-09-09T08:34:49.047Z,18.50
2018-09-09T08:37:17.797Z,18.50
2018-09-09T08:39:46.452Z,18.70
2018-09-09T08:42:15.061Z,18.80
2018-09-09T08:44:43.886Z,19.00
2018-09-09T08:47:12.538Z,19.20
2018-09-09T08:49:41.167Z,19.50
2018-09-09T08:52:09.907Z,19.50
2018-09-09T08:54:38.595Z,19.50
2018-09-09T08:57:07.208Z,19.80
2018-09-09T08:59:35.921Z,19.90
2018-09-09T09:02:04.654Z,20.00
2018-09-09T09:04:33.333Z,20.20
2018-09-09T09:07:02.396Z,20.20
2018-09-09T09:09:31.095Z,20.20
2018-09-09T09:11:59.875Z,20.10
2018-09-09T09:14:28.554Z,20.10
2018-09-09T09:16:57.279Z,20.30
2018-09-09T09:19:25.889Z,20.40
2018-09-09T09:21:54.816Z,20.50
2018-09-09T09:24:23.438Z,20.50
2018-09-09T09:26:52.094Z,20.50
2018-09-09T09:29:20.771Z,20.60
2018-09-09T09:31:49.416Z,20.80
2018-09-09T09:34:18.047Z,20.80
2018-09-09T09:36:46.670Z,20.90
2018-09-09T09:39:15.351Z,21.00
2018-09-09T09:41:43.998Z,21.00
2018-09-09T09:44:12.610Z,21.00
2018-09-09T09:46:41.233Z,21.10
2018-09-09T09:49:09.936Z,21.30
2018-09-09T09:51:38.593Z,21.40
2018-09-09T09:54:07.214Z,21.30
2018-09-09T09:56:35.862Z,21.30
2018-09-09T09:59:04.973Z,21.30
2018-09-09T10:01:33.658Z,21.30
2018-09-09T10:04:02.270Z,21.40
2018-09-09T10:06:30.976Z,21.40
2018-09-09T10:08:59.830Z,21.40
2018-09-09T10:11:28.477Z,21.50
2018-09-09T10:13:57.113Z,21.60
2018-09-09T10:16:25.745Z,21.60
2018-09-09T10:18:54.393Z,21.60
2018-09-09T10:21:29.633Z,21.70
2018-09-09T10:23:58.522Z,21.70
2018-09-09T10:26:27.259Z,22.00
2018-09-09T10:28:55.880Z,21.90
2018-09-09T10:31:27.302Z,21.80
2018-09-09T10:33:55.962Z,21.90
2018-09-09T10:36:24.608Z,22.00
2018-09-09T10:38:53.210Z,22.10
2018-09-09T10:41:21.870Z,22.10
2018-09-09T10:43:50.537Z,22.20
2018-09-09T10:46:19.309Z,22.20
2018-09-09T10:48:48.226Z,22.30
2018-09-09T10:51:16.863Z,22.30
2018-09-09T10:53:45.507Z,22.30
2018-09-09T10:56:14.187Z,22.40
2018-09-09T10:58:42.879Z,22.40
2018-09-09T11:01:11.658Z,22.50
2018-09-09T11:03:40.282Z,22.60
2018-09-09T11:06:08.908Z,22.60
2018-09-09T11:08:37.559Z,22.70
2018-09-09T11:11:06.213Z,22.90
2018-09-09T11:13:34.863Z,23.00
2018-09-09T11:16:03.495Z,23.10
2018-09-09T11:18:32.179Z,23.30
2018-09-09T11:21:00.853Z,23.50
2018-09-09T11:23:29.454Z,23.70
2018-09-09T11:25:58.238Z,23.90
2018-09-09T11:28:26.929Z,24.00
2018-09-09T11:30:55.558Z,24.10
2018-09-09T11:33:24.181Z,24.10
2018-09-09T11:35:52.833Z,24.20
2018-09-09T11:38:21.619Z,24.30
2018-09-09T11:40:50.281Z,24.40
2018-09-09T11:43:18.892Z,24.20
2018-09-09T11:45:47.578Z,24.00
2018-09-09T11:48:16.225Z,24.20
2018-09-09T11:50:45.035Z,24.50
2018-09-09T11:53:13.696Z,24.60
2018-09-09T11:55:42.442Z,24.80
2018-09-09T11:58:11.145Z,24.80
2018-09-09T12:00:39.788Z,25.10
2018-09-09T12:03:08.512Z,25.40
2018-09-09T12:05:37.126Z,25.30
2018-09-09T12:08:05.870Z,25.40
2018-09-09T12:10:34.561Z,25.70
2018-09-09T12:13:03.186Z,26.00
2018-09-09T12:15:32.011Z,26.60
2018-09-09T12:18:00.622Z,26.90
2018-09-09T12:20:29.237Z,27.00
2018-09-09T12:22:57.878Z,27.10
2018-09-09T12:25:26.538Z,27.00
2018-09-09T12:27:55.264Z,26.90
2018-09-09T12:30:23.917Z,26.90
2018-09-09T12:32:52.634Z,26.70
2018-09-09T12:35:21.370Z,26.60
2018-09-09T12:37:50.038Z,26.50
2018-09-09T12:40:18.991Z,26.30
2018-09-09T12:42:51.798Z,26.30
2018-09-09T12:45:25.852Z,26.20
2018-09-09T12:47:59.804Z,26.30
2018-09-09T12:50:28.443Z,26.40
2018-09-09T12:52:57.163Z,26.30
2018-09-09T12:55:25.791Z,26.10
2018-09-09T12:57:54.479Z,26.30
2018-09-09T13:00:23.178Z,27.00
2018-09-09T13:02:51.842Z,27.40
2018-09-09T13:05:20.503Z,27.40
2018-09-09T13:07:49.128Z,27.30
2018-09-09T13:10:17.787Z,27.40
2018-09-09T13:12:51.849Z,27.70
2018-09-09T13:15:20.468Z,27.70
2018-09-09T13:17:49.345Z,27.70
2018-09-09T13:20:17.946Z,27.90
2018-09-09T13:22:46.602Z,28.40
2018-09-09T13:25:15.222Z,28.70
2018-09-09T13:27:43.841Z,28.70
2018-09-09T13:30:12.510Z,28.80
2018-09-09T13:32:41.164Z,28.70
2018-09-09T13:35:09.809Z,28.50
2018-09-09T13:37:38.483Z,28.50
2018-09-09T13:40:07.226Z,28.90
2018-09-09T13:42:35.919Z,29.20
2018-09-09T13:45:04.943Z,29.40
2018-09-09T13:47:33.605Z,29.60
2018-09-09T13:50:02.307Z,29.00
2018-09-09T13:52:30.961Z,28.70
2018-09-09T13:54:59.597Z,28.00
2018-09-09T13:57:28.322Z,27.60
2018-09-09T13:59:57.008Z,27.50
2018-09-09T14:02:25.947Z,27.90
2018-09-09T14:04:54.694Z,28.50
2018-09-09T14:07:23.358Z,29.30
2018-09-09T14:09:51.993Z,30.00
2018-09-09T14:12:20.702Z,29.70
2018-09-09T14:14:49.381Z,29.50
2018-09-09T14:17:18.194Z,29.60
2018-09-09T14:19:46.854Z,29.40
2018-09-09T14:22:15.549Z,29.80
2018-09-09T14:24:44.388Z,29.60
2018-09-09T14:27:13.004Z,30.10
2018-09-09T14:29:41.688Z,30.40
2018-09-09T14:32:10.342Z,30.40
2018-09-09T14:34:39.146Z,30.80
2018-09-09T14:37:07.823Z,31.10
2018-09-09T14:39:36.862Z,31.50
2018-09-09T14:42:12.082Z,31.90
2018-09-09T14:44:40.730Z,32.10
2018-09-09T14:47:09.342Z,32.50
2018-09-09T14:49:38.012Z,32.90
2018-09-09T14:52:06.641Z,33.40
2018-09-09T14:54:35.319Z,33.50
2018-09-09T14:57:03.940Z,33.40
2018-09-09T14:59:32.600Z,33.50
2018-09-09T15:02:01.259Z,33.30
2018-09-09T15:04:29.970Z,33.30
2018-09-09T15:06:58.808Z,32.90
2018-09-09T15:09:27.385Z,32.50
2018-09-09T15:11:56.063Z,32.00
2018-09-09T15:14:24.708Z,32.00
2018-09-09T15:16:53.364Z,32.10
2018-09-09T15:19:22.034Z,31.60
2018-09-09T15:21:50.661Z,31.70
2018-09-09T15:24:19.316Z,31.10
2018-09-09T15:26:47.963Z,31.30
2018-09-09T15:29:16.613Z,31.00
2018-09-09T15:31:45.269Z,31.30
2018-09-09T15:34:13.954Z,31.50
2018-09-09T15:36:42.573Z,31.60
2018-09-09T15:39:11.509Z,30.90
2018-09-09T15:41:40.149Z,30.60
2018-09-09T15:44:08.800Z,30.60
2018-09-09T15:46:37.446Z,30.30
2018-09-09T15:49:06.105Z,30.00
2018-09-09T15:51:34.885Z,29.40
2018-09-09T15:54:03.525Z,29.10
2018-09-09T15:56:32.145Z,28.70
2018-09-09T15:59:00.783Z,28.60
2018-09-09T16:01:29.458Z,28.30
2018-09-09T16:03:58.178Z,28.00
2018-09-09T16:06:26.825Z,27.70
2018-09-09T16:08:55.494Z,27.30
2018-09-09T16:11:24.194Z,27.10
2018-09-09T16:13:52.833Z,27.00
2018-09-09T16:16:21.505Z,27.40
2018-09-09T16:18:50.247Z,28.20
2018-09-09T16:21:18.801Z,28.90
2018-09-09T16:23:47.455Z,29.30
2018-09-09T16:26:16.085Z,29.20
2018-09-09T16:28:44.897Z,29.50
2018-09-09T16:31:13.506Z,30.10
2018-09-09T16:33:42.863Z,30.70
2018-09-09T16:36:11.507Z,31.00
2018-09-09T16:38:40.183Z,30.80
2018-09-09T16:41:08.846Z,30.20
2018-09-09T16:43:37.472Z,29.40
2018-09-09T16:46:06.145Z,28.80
2018-09-09T16:48:34.840Z,28.20
2018-09-09T16:51:03.458Z,28.00
2018-09-09T16:53:32.249Z,27.80
2018-09-09T16:56:00.899Z,28.00
2018-09-09T16:58:29.546Z,28.20
2018-09-09T17:00:58.314Z,28.20
2018-09-09T17:03:26.916Z,27.60
2018-09-09T17:05:55.930Z,27.00
2018-09-09T17:08:24.661Z,26.70
2018-09-09T17:10:53.434Z,26.30
2018-09-09T17:13:22.106Z,26.10
2018-09-09T17:15:51.057Z,25.90
2018-09-09T17:18:19.784Z,25.60
2018-09-09T17:20:48.496Z,25.20
2018-09-09T17:23:17.214Z,24.80
2018-09-09T17:25:45.866Z,24.40
2018-09-09T17:28:14.517Z,24.00
2018-09-09T17:30:43.184Z,23.60
2018-09-09T17:33:11.794Z,23.30
2018-09-09T17:35:40.483Z,23.00
2018-09-09T17:38:09.129Z,22.80
2018-09-09T17:40:37.858Z,22.60
2018-09-09T17:43:06.634Z,22.40
2018-09-09T17:45:35.306Z,22.20
2018-09-09T17:48:03.957Z,21.90
2018-09-09T17:50:32.581Z,21.70
2018-09-09T17:53:01.356Z,21.60
2018-09-09T17:55:29.969Z,21.40
2018-09-09T17:57:58.699Z,21.20
2018-09-09T18:00:27.504Z,21.10
2018-09-09T18:02:56.125Z,20.90
2018-09-09T18:05:24.771Z,20.80
2018-09-09T18:07:53.373Z,20.60
2018-09-09T18:10:22.108Z,20.50
2018-09-09T18:12:50.745Z,20.30
2018-09-09T18:15:19.392Z,20.20
2018-09-09T18:17:48.041Z,20.00
2018-09-09T18:20:16.707Z,19.90
2018-09-09T18:22:45.318Z,19.70
2018-09-09T18:25:13.945Z,19.60
2018-09-09T18:27:42.550Z,19.50
2018-09-09T18:30:11.194Z,19.30
2018-09-09T18:32:39.806Z,19.20
2018-09-09T18:35:08.584Z,19.10
2018-09-09T18:37:37.190Z,19.00
2018-09-09T18:40:05.863Z,18.80
2018-09-09T18:42:34.517Z,18.70
2018-09-09T18:45:03.205Z,18.60
2018-09-09T18:47:31.816Z,18.50
2018-09-09T18:50:00.474Z,18.40
2018-09-09T18:52:29.068Z,18.30
2018-09-09T18:54:57.707Z,18.30
2018-09-09T18:57:26.342Z,18.20
2018-09-09T18:59:55.096Z,18.10
2018-09-09T19:02:23.709Z,18.00
2018-09-09T19:04:52.332Z,17.90
2018-09-09T19:07:21.013Z,17.80
2018-09-09T19:09:49.658Z,17.80
2018-09-09T19:12:18.386Z,17.70
2018-09-09T19:14:47.538Z,17.60
2018-09-09T19:17:16.185Z,17.50
2018-09-09T19:19:44.866Z,17.50
2018-09-09T19:22:13.615Z,17.40
2018-09-09T19:24:42.469Z,17.30
2018-09-09T19:27:11.127Z,17.20
2018-09-09T19:29:39.721Z,17.20
2018-09-09T19:32:08.388Z,17.20
2018-09-09T19:34:37.013Z,17.10
2018-09-09T19:37:05.816Z,17.00
2018-09-09T19:39:34.495Z,16.90
2018-09-09T19:42:03.116Z,16.80
2018-09-09T19:44:31.793Z,16.70
2018-09-09T19:47:00.461Z,16.70
2018-09-09T19:49:29.262Z,16.60
2018-09-09T19:51:57.917Z,16.50
2018-09-09T19:54:26.532Z,16.50
2018-09-09T19:56:55.225Z,16.40
2018-09-09T19:59:23.901Z,16.30
2018-09-09T20:01:52.554Z,16.30
2018-09-09T20:04:21.150Z,16.20
2018-09-09T20:06:49.790Z,16.10
2018-09-09T20:09:18.439Z,16.00
2018-09-09T20:11:47.049Z,16.00
2018-09-09T20:14:15.716Z,16.00
2018-09-09T20:16:44.377Z,15.90
2018-09-09T20:19:13.024Z,15.90
2018-09-09T20:21:41.728Z,15.90
2018-09-09T20:24:10.378Z,15.80
2018-09-09T20:26:39.143Z,15.80
2018-09-09T20:29:07.788Z,15.70
2018-09-09T20:31:36.489Z,15.60
2018-09-09T20:34:05.427Z,15.60
2018-09-09T20:36:34.113Z,15.50
2018-09-09T20:39:02.879Z,15.40
2018-09-09T20:41:31.663Z,15.40
2018-09-09T20:44:03.843Z,15.20
2018-09-09T20:46:32.511Z,15.20
2018-09-09T20:49:01.257Z,15.10
2018-09-09T20:51:30.009Z,15.00
2018-09-09T20:53:58.752Z,14.90
2018-09-09T20:56:28.469Z,14.90
2018-09-09T20:58:57.118Z,14.80
2018-09-09T21:01:25.767Z,14.70
2018-09-09T21:03:54.436Z,14.70
2018-09-09T21:06:23.096Z,14.70
2018-09-09T21:08:51.825Z,14.60
2018-09-09T21:11:20.473Z,14.50
2018-09-09T21:13:49.092Z,14.40
2018-09-09T21:16:17.789Z,14.50
2018-09-09T21:18:46.453Z,14.40
2018-09-09T21:21:15.121Z,14.40
2018-09-09T21:23:43.805Z,14.30
2018-09-09T21:26:12.621Z,14.30
2018-09-09T21:28:41.329Z,14.30
2018-09-09T21:31:10.023Z,14.20
2018-09-09T21:33:38.686Z,14.10
2018-09-09T21:36:07.506Z,14.10
2018-09-09T21:38:36.178Z,14.00
2018-09-09T21:41:04.860Z,13.90
2018-09-09T21:43:33.506Z,13.80
2018-09-09T21:46:02.146Z,13.80
2018-09-09T21:48:30.822Z,13.70
2018-09-09T21:50:59.482Z,13.70
2018-09-09T21:53:28.207Z,13.60
2018-09-09T21:55:56.837Z,13.60
2018-09-09T21:58:25.517Z,13.60
2018-09-09T22:00:59.585Z,13.50
2018-09-09T22:03:28.259Z,13.40
2018-09-09T22:05:57.989Z,13.40
2018-09-09T22:08:26.763Z,13.20
2018-09-09T22:10:55.782Z,13.10
2018-09-09T22:13:24.481Z,13.10
2018-09-09T22:15:53.283Z,13.00
2018-09-09T22:18:21.971Z,12.90
2018-09-09T22:20:50.648Z,12.90
2018-09-09T22:23:19.294Z,12.80
2018-09-09T22:25:47.937Z,12.80
2018-09-09T22:28:17.377Z,12.70
2018-09-09T22:30:46.146Z,12.70
2018-09-09T22:33:14.755Z,12.60
2018-09-09T22:35:43.397Z,12.60
2018-09-09T22:38:12.073Z,12.60
2018-09-09T22:40:40.688Z,12.50
2018-09-09T22:43:09.503Z,12.40
2018-09-09T22:45:38.184Z,12.40
2018-09-09T22:48:06.931Z,12.30
2018-09-09T22:50:36.002Z,12.30
2018-09-09T22:53:04.698Z,12.30
2018-09-09T22:55:33.432Z,12.20
2018-09-09T22:58:02.506Z,12.10
2018-09-09T23:00:31.150Z,12.10
2018-09-09T23:02:59.784Z,12.00
2018-09-09T23:05:28.409Z,12.00
2018-09-09T23:07:57.264Z,11.90
2018-09-09T23:10:25.937Z,11.90
2018-09-09T23:12:54.585Z,11.90
2018-09-09T23:15:26.272Z,11.80
2018-09-09T23:17:55.378Z,11.80
2018-09-09T23:20:24.234Z,11.80
2018-09-09T23:22:53.694Z,11.80
2018-09-09T23:25:22.918Z,11.70
2018-09-09T23:27:51.598Z,11.70
2018-09-09T23:30:20.237Z,11.70
2018-09-09T23:32:49.027Z,11.60
2018-09-09T23:35:17.663Z,11.60
2018-09-09T23:37:46.313Z,11.60
2018-09-09T23:40:14.957Z,11.50
2018-09-09T23:42:43.613Z,11.50
2018-09-09T23:45:12.310Z,11.40
2018-09-09T23:47:40.954Z,11.40
2018-09-09T23:50:09.665Z,11.40
2018-09-09T23:52:38.321Z,11.30
2018-09-09T23:55:07.386Z,11.30
2018-09-09T23:57:36.061Z,11.20
